sensor_id;sensor_type;location;lat;lon;timestamp;pressure;altitude;pressure_sealevel;temperature;humidity
50710;BME280;37033;49.994;21.992;2023-04-03T00:00:17;99313.52;;;2.03;88.50
50710;BME280;37033;49.994;21.992;2023-04-03T00:03:07;99314.54;;;2.01;88.37
50710;BME280;37033;49.994;21.992;2023-04-03T00:05:38;99315.52;;;2.01;88.47
50710;BME280;37033;49.994;21.992;2023-04-03T00:08:10;99313.52;;;2.01;88.53
50710;BME280;37033;49.994;21.992;2023-04-03T00:10:40;99316.98;;;1.99;88.53
50710;BME280;37033;49.994;21.992;2023-04-03T00:13:12;99314.41;;;1.97;88.48
50710;BME280;37033;49.994;21.992;2023-04-03T00:15:43;99312.20;;;1.95;88.65
50710;BME280;37033;49.994;21.992;2023-04-03T00:18:14;99315.79;;;1.95;88.52
50710;BME280;37033;49.994;21.992;2023-04-03T00:20:45;99313.77;;;1.95;88.30
50710;BME280;37033;49.994;21.992;2023-04-03T00:23:15;99310.92;;;1.94;88.47
50710;BME280;37033;49.994;21.992;2023-04-03T00:25:46;99314.23;;;1.95;88.53
50710;BME280;37033;49.994;21.992;2023-04-03T00:28:17;99316.02;;;1.94;88.69
50710;BME280;37033;49.994;21.992;2023-04-03T00:30:49;99315.43;;;1.93;88.54
50710;BME280;37033;49.994;21.992;2023-04-03T00:33:21;99311.17;;;1.89;88.62
50710;BME280;37033;49.994;21.992;2023-04-03T00:35:53;99315.94;;;1.87;88.62
50710;BME280;37033;49.994;21.992;2023-04-03T00:38:24;99316.06;;;1.84;88.66
50710;BME280;37033;49.994;21.992;2023-04-03T00:40:55;99320.91;;;1.83;88.85
50710;BME280;37033;49.994;21.992;2023-04-03T00:43:26;99317.20;;;1.80;88.94
50710;BME280;37033;49.994;21.992;2023-04-03T00:45:58;99319.70;;;1.78;88.79
50710;BME280;37033;49.994;21.992;2023-04-03T00:48:32;99318.78;;;1.78;88.81
50710;BME280;37033;49.994;21.992;2023-04-03T00:51:07;99322.66;;;1.77;88.95
50710;BME280;37033;49.994;21.992;2023-04-03T00:53:39;99323.64;;;1.76;88.93
50710;BME280;37033;49.994;21.992;2023-04-03T00:56:14;99320.23;;;1.74;89.03
50710;BME280;37033;49.994;21.992;2023-04-03T00:58:49;99324.38;;;1.73;88.91
50710;BME280;37033;49.994;21.992;2023-04-03T01:01:24;99323.23;;;1.74;88.88
50710;BME280;37033;49.994;21.992;2023-04-03T01:03:55;99324.86;;;1.72;88.91
50710;BME280;37033;49.994;21.992;2023-04-03T01:06:28;99323.56;;;1.71;89.03
50710;BME280;37033;49.994;21.992;2023-04-03T01:09:00;99324.57;;;1.69;89.21
50710;BME280;37033;49.994;21.992;2023-04-03T01:11:31;99327.14;;;1.67;89.01
50710;BME280;37033;49.994;21.992;2023-04-03T01:14:02;99328.23;;;1.65;89.21
50710;BME280;37033;49.994;21.992;2023-04-03T01:16:35;99329.46;;;1.65;89.10
50710;BME280;37033;49.994;21.992;2023-04-03T01:19:08;99332.39;;;1.65;89.25
50710;BME280;37033;49.994;21.992;2023-04-03T01:22:03;99332.01;;;1.65;89.03
50710;BME280;37033;49.994;21.992;2023-04-03T01:24:42;99336.80;;;1.65;89.10
50710;BME280;37033;49.994;21.992;2023-04-03T01:27:12;99337.64;;;1.64;88.96
50710;BME280;37033;49.994;21.992;2023-04-03T01:29:44;99335.64;;;1.64;89.09
50710;BME280;37033;49.994;21.992;2023-04-03T01:32:15;99340.61;;;1.63;89.25
50710;BME280;37033;49.994;21.992;2023-04-03T01:34:46;99345.80;;;1.63;89.28
50710;BME280;37033;49.994;21.992;2023-04-03T01:37:17;99347.95;;;1.60;89.24
50710;BME280;37033;49.994;21.992;2023-04-03T01:39:47;99355.27;;;1.60;89.26
50710;BME280;37033;49.994;21.992;2023-04-03T01:42:18;99350.75;;;1.57;89.19
50710;BME280;37033;49.994;21.992;2023-04-03T01:44:48;99356.21;;;1.57;89.05
50710;BME280;37033;49.994;21.992;2023-04-03T01:47:19;99355.02;;;1.56;88.92
50710;BME280;37033;49.994;21.992;2023-04-03T01:49:50;99359.17;;;1.56;88.92
50710;BME280;37033;49.994;21.992;2023-04-03T01:52:20;99356.14;;;1.54;88.82
50710;BME280;37033;49.994;21.992;2023-04-03T01:54:51;99361.89;;;1.53;88.64
50710;BME280;37033;49.994;21.992;2023-04-03T01:57:21;99361.23;;;1.51;88.60
50710;BME280;37033;49.994;21.992;2023-04-03T01:59:52;99365.55;;;1.49;88.33
50710;BME280;37033;49.994;21.992;2023-04-03T02:02:23;99366.63;;;1.47;88.47
50710;BME280;37033;49.994;21.992;2023-04-03T02:04:54;99368.02;;;1.46;88.35
50710;BME280;37033;49.994;21.992;2023-04-03T02:07:25;99371.74;;;1.45;88.36
50710;BME280;37033;49.994;21.992;2023-04-03T02:09:56;99368.60;;;1.44;88.38
50710;BME280;37033;49.994;21.992;2023-04-03T02:12:27;99369.89;;;1.43;88.26
50710;BME280;37033;49.994;21.992;2023-04-03T02:14:57;99374.24;;;1.42;88.48
50710;BME280;37033;49.994;21.992;2023-04-03T02:17:28;99377.38;;;1.39;88.23
50710;BME280;37033;49.994;21.992;2023-04-03T02:19:59;99375.98;;;1.36;88.23
50710;BME280;37033;49.994;21.992;2023-04-03T02:22:29;99374.48;;;1.35;88.31
50710;BME280;37033;49.994;21.992;2023-04-03T02:25:00;99379.71;;;1.35;88.20
50710;BME280;37033;49.994;21.992;2023-04-03T02:27:31;99379.08;;;1.34;88.24
50710;BME280;37033;49.994;21.992;2023-04-03T02:30:02;99385.72;;;1.32;88.21
50710;BME280;37033;49.994;21.992;2023-04-03T02:32:33;99384.04;;;1.30;88.12
50710;BME280;37033;49.994;21.992;2023-04-03T02:35:04;99386.77;;;1.28;88.27
50710;BME280;37033;49.994;21.992;2023-04-03T02:37:35;99386.58;;;1.26;88.14
50710;BME280;37033;49.994;21.992;2023-04-03T02:40:08;99388.57;;;1.25;88.22
50710;BME280;37033;49.994;21.992;2023-04-03T02:42:40;99388.21;;;1.23;88.11
50710;BME280;37033;49.994;21.992;2023-04-03T02:45:11;99388.80;;;1.21;88.18
50710;BME280;37033;49.994;21.992;2023-04-03T02:47:42;99391.08;;;1.20;88.09
50710;BME280;37033;49.994;21.992;2023-04-03T02:50:13;99392.77;;;1.18;88.04
50710;BME280;37033;49.994;21.992;2023-04-03T02:52:43;99391.02;;;1.18;88.00
50710;BME280;37033;49.994;21.992;2023-04-03T02:55:16;99391.25;;;1.17;87.95
50710;BME280;37033;49.994;21.992;2023-04-03T02:57:46;99394.16;;;1.17;87.74
50710;BME280;37033;49.994;21.992;2023-04-03T03:00:21;99400.52;;;1.16;87.71
50710;BME280;37033;49.994;21.992;2023-04-03T03:02:52;99404.20;;;1.13;87.76
50710;BME280;37033;49.994;21.992;2023-04-03T03:05:22;99403.65;;;1.12;87.73
50710;BME280;37033;49.994;21.992;2023-04-03T03:07:53;99405.61;;;1.12;87.81
50710;BME280;37033;49.994;21.992;2023-04-03T03:10:24;99404.29;;;1.11;87.92
50710;BME280;37033;49.994;21.992;2023-04-03T03:12:54;99406.53;;;1.10;87.95
50710;BME280;37033;49.994;21.992;2023-04-03T03:15:25;99405.94;;;1.09;88.00
50710;BME280;37033;49.994;21.992;2023-04-03T03:17:55;99416.34;;;1.09;87.74
50710;BME280;37033;49.994;21.992;2023-04-03T03:20:26;99408.55;;;1.05;87.85
50710;BME280;37033;49.994;21.992;2023-04-03T03:22:57;99413.03;;;1.05;87.80
50710;BME280;37033;49.994;21.992;2023-04-03T03:25:27;99418.45;;;1.04;87.80
50710;BME280;37033;49.994;21.992;2023-04-03T03:27:58;99415.77;;;1.02;87.96
50710;BME280;37033;49.994;21.992;2023-04-03T03:30:29;99417.00;;;0.98;87.85
50710;BME280;37033;49.994;21.992;2023-04-03T03:32:59;99417.11;;;0.96;87.83
50710;BME280;37033;49.994;21.992;2023-04-03T03:35:30;99424.52;;;0.95;87.96
50710;BME280;37033;49.994;21.992;2023-04-03T03:38:01;99423.08;;;0.95;87.96
50710;BME280;37033;49.994;21.992;2023-04-03T03:40:32;99426.63;;;0.94;87.98
50710;BME280;37033;49.994;21.992;2023-04-03T03:43:03;99429.52;;;0.93;88.01
50710;BME280;37033;49.994;21.992;2023-04-03T03:45:34;99426.39;;;0.91;87.69
50710;BME280;37033;49.994;21.992;2023-04-03T03:48:06;99425.55;;;0.89;87.85
50710;BME280;37033;49.994;21.992;2023-04-03T03:50:36;99430.13;;;0.90;87.76
50710;BME280;37033;49.994;21.992;2023-04-03T03:53:07;99426.33;;;0.89;87.70
50710;BME280;37033;49.994;21.992;2023-04-03T03:55:38;99427.90;;;0.89;87.64
50710;BME280;37033;49.994;21.992;2023-04-03T03:58:09;99425.84;;;0.88;87.64
50710;BME280;37033;49.994;21.992;2023-04-03T04:00:40;99427.11;;;0.88;87.65
50710;BME280;37033;49.994;21.992;2023-04-03T04:03:11;99433.84;;;0.87;87.55
50710;BME280;37033;49.994;21.992;2023-04-03T04:05:42;99438.70;;;0.85;87.69
50710;BME280;37033;49.994;21.992;2023-04-03T04:08:13;99436.87;;;0.84;87.60
50710;BME280;37033;49.994;21.992;2023-04-03T04:10:44;99438.65;;;0.82;87.72
50710;BME280;37033;49.994;21.992;2023-04-03T04:13:15;99441.92;;;0.82;87.70
50710;BME280;37033;49.994;21.992;2023-04-03T04:15:45;99447.19;;;0.79;87.94
50710;BME280;37033;49.994;21.992;2023-04-03T04:18:16;99443.16;;;0.77;87.76
50710;BME280;37033;49.994;21.992;2023-04-03T04:20:49;99446.44;;;0.77;87.82
50710;BME280;37033;49.994;21.992;2023-04-03T04:23:20;99453.35;;;0.77;88.01
50710;BME280;37033;49.994;21.992;2023-04-03T04:25:51;99454.45;;;0.75;87.91
50710;BME280;37033;49.994;21.992;2023-04-03T04:28:22;99458.63;;;0.75;88.15
50710;BME280;37033;49.994;21.992;2023-04-03T04:30:52;99461.59;;;0.74;88.38
50710;BME280;37033;49.994;21.992;2023-04-03T04:33:23;99465.60;;;0.73;88.30
50710;BME280;37033;49.994;21.992;2023-04-03T04:35:54;99464.40;;;0.71;88.39
50710;BME280;37033;49.994;21.992;2023-04-03T04:38:26;99466.52;;;0.70;88.51
50710;BME280;37033;49.994;21.992;2023-04-03T04:40:56;99470.20;;;0.69;88.57
50710;BME280;37033;49.994;21.992;2023-04-03T04:43:27;99475.98;;;0.68;88.61
50710;BME280;37033;49.994;21.992;2023-04-03T04:46:06;99468.12;;;0.65;88.57
50710;BME280;37033;49.994;21.992;2023-04-03T04:48:37;99477.19;;;0.64;88.54
50710;BME280;37033;49.994;21.992;2023-04-03T04:51:08;99477.21;;;0.63;88.67
50710;BME280;37033;49.994;21.992;2023-04-03T04:53:39;99474.48;;;0.63;88.64
50710;BME280;37033;49.994;21.992;2023-04-03T04:56:09;99479.07;;;0.61;88.56
50710;BME280;37033;49.994;21.992;2023-04-03T04:58:40;99481.52;;;0.62;88.67
50710;BME280;37033;49.994;21.992;2023-04-03T05:01:12;99484.48;;;0.63;88.63
50710;BME280;37033;49.994;21.992;2023-04-03T05:03:43;99487.76;;;0.62;88.67
50710;BME280;37033;49.994;21.992;2023-04-03T05:06:13;99489.44;;;0.59;88.63
50710;BME280;37033;49.994;21.992;2023-04-03T05:08:44;99491.70;;;0.55;88.65
50710;BME280;37033;49.994;21.992;2023-04-03T05:11:14;99496.61;;;0.49;88.81
50710;BME280;37033;49.994;21.992;2023-04-03T05:13:45;99499.80;;;0.47;88.73
50710;BME280;37033;49.994;21.992;2023-04-03T05:16:16;99510.42;;;0.43;88.83
50710;BME280;37033;49.994;21.992;2023-04-03T05:18:46;99516.52;;;0.37;89.01
50710;BME280;37033;49.994;21.992;2023-04-03T05:21:17;99512.44;;;0.31;88.88
50710;BME280;37033;49.994;21.992;2023-04-03T05:23:48;99513.23;;;0.27;88.93
50710;BME280;37033;49.994;21.992;2023-04-03T05:26:19;99521.07;;;0.24;89.03
50710;BME280;37033;49.994;21.992;2023-04-03T05:28:50;99523.88;;;0.19;89.13
50710;BME280;37033;49.994;21.992;2023-04-03T05:31:21;99529.60;;;0.16;89.11
50710;BME280;37033;49.994;21.992;2023-04-03T05:33:51;99530.73;;;0.11;89.04
50710;BME280;37033;49.994;21.992;2023-04-03T05:36:22;99527.48;;;0.08;89.30
50710;BME280;37033;49.994;21.992;2023-04-03T05:38:53;99533.64;;;0.05;89.24
50710;BME280;37033;49.994;21.992;2023-04-03T05:41:26;99534.48;;;0.04;89.23
50710;BME280;37033;49.994;21.992;2023-04-03T05:43:56;99534.05;;;0.03;89.21
50710;BME280;37033;49.994;21.992;2023-04-03T05:46:27;99533.41;;;0.01;89.05
50710;BME280;37033;49.994;21.992;2023-04-03T05:48:59;99533.54;;;-0.00;88.99
50710;BME280;37033;49.994;21.992;2023-04-03T05:51:33;99532.17;;;-0.01;88.90
50710;BME280;37033;49.994;21.992;2023-04-03T05:54:12;99535.42;;;-0.01;88.94
50710;BME280;37033;49.994;21.992;2023-04-03T05:56:43;99535.83;;;-0.03;88.93
50710;BME280;37033;49.994;21.992;2023-04-03T05:59:14;99538.77;;;-0.04;88.83
50710;BME280;37033;49.994;21.992;2023-04-03T06:01:45;99544.23;;;-0.05;88.75
50710;BME280;37033;49.994;21.992;2023-04-03T06:04:16;99541.10;;;-0.08;88.62
50710;BME280;37033;49.994;21.992;2023-04-03T06:06:49;99544.88;;;-0.09;88.62
50710;BME280;37033;49.994;21.992;2023-04-03T06:09:23;99537.55;;;-0.12;88.66
50710;BME280;37033;49.994;21.992;2023-04-03T06:11:54;99543.72;;;-0.13;88.56
50710;BME280;37033;49.994;21.992;2023-04-03T06:14:25;99550.66;;;-0.13;88.40
50710;BME280;37033;49.994;21.992;2023-04-03T06:16:56;99550.75;;;-0.15;88.26
50710;BME280;37033;49.994;21.992;2023-04-03T06:19:27;99552.06;;;-0.16;88.19
50710;BME280;37033;49.994;21.992;2023-04-03T06:21:58;99549.70;;;-0.16;88.03
50710;BME280;37033;49.994;21.992;2023-04-03T06:24:29;99554.67;;;-0.16;87.97
50710;BME280;37033;49.994;21.992;2023-04-03T06:27:00;99555.45;;;-0.16;88.04
50710;BME280;37033;49.994;21.992;2023-04-03T06:29:31;99553.55;;;-0.17;88.10
50710;BME280;37033;49.994;21.992;2023-04-03T06:32:01;99553.11;;;-0.18;88.21
50710;BME280;37033;49.994;21.992;2023-04-03T06:34:32;99557.72;;;-0.17;88.25
50710;BME280;37033;49.994;21.992;2023-04-03T06:37:03;99562.63;;;-0.15;88.25
50710;BME280;37033;49.994;21.992;2023-04-03T06:39:34;99563.86;;;-0.17;88.04
50710;BME280;37033;49.994;21.992;2023-04-03T06:42:05;99572.27;;;-0.19;88.06
50710;BME280;37033;49.994;21.992;2023-04-03T06:44:36;99566.59;;;-0.21;88.15
50710;BME280;37033;49.994;21.992;2023-04-03T06:47:08;99577.80;;;-0.21;88.27
50710;BME280;37033;49.994;21.992;2023-04-03T06:49:41;99579.14;;;-0.22;88.30
50710;BME280;37033;49.994;21.992;2023-04-03T06:52:12;99576.45;;;-0.22;88.27
50710;BME280;37033;49.994;21.992;2023-04-03T06:54:43;99582.10;;;-0.21;88.47
50710;BME280;37033;49.994;21.992;2023-04-03T06:57:14;99588.23;;;-0.22;88.38
50710;BME280;37033;49.994;21.992;2023-04-03T06:59:45;99587.66;;;-0.23;88.47
50710;BME280;37033;49.994;21.992;2023-04-03T07:02:15;99590.70;;;-0.25;88.53
50710;BME280;37033;49.994;21.992;2023-04-03T07:04:46;99591.35;;;-0.26;88.61
50710;BME280;37033;49.994;21.992;2023-04-03T07:07:17;99592.58;;;-0.27;88.64
50710;BME280;37033;49.994;21.992;2023-04-03T07:09:48;99593.90;;;-0.30;88.65
50710;BME280;37033;49.994;21.992;2023-04-03T07:12:18;99598.19;;;-0.30;88.71
50710;BME280;37033;49.994;21.992;2023-04-03T07:14:49;99598.80;;;-0.32;88.70
50710;BME280;37033;49.994;21.992;2023-04-03T07:17:20;99600.89;;;-0.33;88.63
50710;BME280;37033;49.994;21.992;2023-04-03T07:19:51;99604.90;;;-0.34;88.67
50710;BME280;37033;49.994;21.992;2023-04-03T07:22:22;99614.52;;;-0.37;88.79
50710;BME280;37033;49.994;21.992;2023-04-03T07:24:52;99614.23;;;-0.40;88.70
50710;BME280;37033;49.994;21.992;2023-04-03T07:27:24;99625.52;;;-0.45;88.60
50710;BME280;37033;49.994;21.992;2023-04-03T07:29:55;99619.51;;;-0.49;88.56
50710;BME280;37033;49.994;21.992;2023-04-03T07:32:26;99627.80;;;-0.50;88.48
50710;BME280;37033;49.994;21.992;2023-04-03T07:34:57;99627.03;;;-0.53;88.53
50710;BME280;37033;49.994;21.992;2023-04-03T07:37:28;99625.63;;;-0.55;88.26
50710;BME280;37033;49.994;21.992;2023-04-03T07:39:58;99630.63;;;-0.55;88.41
50710;BME280;37033;49.994;21.992;2023-04-03T07:42:32;99634.84;;;-0.54;88.37
50710;BME280;37033;49.994;21.992;2023-04-03T07:45:04;99634.30;;;-0.54;88.22
50710;BME280;37033;49.994;21.992;2023-04-03T07:47:35;99640.29;;;-0.55;88.04
50710;BME280;37033;49.994;21.992;2023-04-03T07:50:08;99639.71;;;-0.55;88.22
50710;BME280;37033;49.994;21.992;2023-04-03T07:52:38;99640.31;;;-0.54;87.82
50710;BME280;37033;49.994;21.992;2023-04-03T07:55:10;99642.75;;;-0.55;87.82
50710;BME280;37033;49.994;21.992;2023-04-03T07:57:40;99646.63;;;-0.54;87.86
50710;BME280;37033;49.994;21.992;2023-04-03T08:00:13;99644.27;;;-0.52;87.81
50710;BME280;37033;49.994;21.992;2023-04-03T08:02:46;99643.76;;;-0.51;87.79
50710;BME280;37033;49.994;21.992;2023-04-03T08:05:20;99646.59;;;-0.51;87.65
50710;BME280;37033;49.994;21.992;2023-04-03T08:07:51;99652.20;;;-0.53;87.65
50710;BME280;37033;49.994;21.992;2023-04-03T08:10:22;99655.52;;;-0.55;87.32
50710;BME280;37033;49.994;21.992;2023-04-03T08:12:53;99653.48;;;-0.55;87.18
50710;BME280;37033;49.994;21.992;2023-04-03T08:15:24;99656.20;;;-0.54;87.29
50710;BME280;37033;49.994;21.992;2023-04-03T08:17:55;99661.05;;;-0.53;86.96
50710;BME280;37033;49.994;21.992;2023-04-03T08:20:26;99668.63;;;-0.52;86.76
50710;BME280;37033;49.994;21.992;2023-04-03T08:22:57;99668.21;;;-0.55;86.71
50710;BME280;37033;49.994;21.992;2023-04-03T08:25:28;99675.16;;;-0.54;86.82
50710;BME280;37033;49.994;21.992;2023-04-03T08:27:59;99675.46;;;-0.51;86.73
50710;BME280;37033;49.994;21.992;2023-04-03T08:30:31;99683.58;;;-0.52;86.78
50710;BME280;37033;49.994;21.992;2023-04-03T08:33:03;99678.71;;;-0.51;86.63
50710;BME280;37033;49.994;21.992;2023-04-03T08:35:37;99681.70;;;-0.51;86.59
50710;BME280;37033;49.994;21.992;2023-04-03T08:38:08;99685.35;;;-0.54;86.37
50710;BME280;37033;49.994;21.992;2023-04-03T08:40:40;99686.88;;;-0.55;86.63
50710;BME280;37033;49.994;21.992;2023-04-03T08:43:27;99689.52;;;-0.56;86.58
50710;BME280;37033;49.994;21.992;2023-04-03T08:46:06;99692.33;;;-0.56;86.58
50710;BME280;37033;49.994;21.992;2023-04-03T08:48:42;99695.85;;;-0.57;86.48
50710;BME280;37033;49.994;21.992;2023-04-03T08:51:16;99697.88;;;-0.60;86.37
50710;BME280;37033;49.994;21.992;2023-04-03T08:53:54;99702.91;;;-0.60;86.43
50710;BME280;37033;49.994;21.992;2023-04-03T08:56:27;99707.58;;;-0.62;86.43
50710;BME280;37033;49.994;21.992;2023-04-03T08:59:03;99711.98;;;-0.64;86.35
50710;BME280;37033;49.994;21.992;2023-04-03T09:01:39;99712.42;;;-0.68;86.22
50710;BME280;37033;49.994;21.992;2023-04-03T09:04:13;99712.62;;;-0.71;85.84
50710;BME280;37033;49.994;21.992;2023-04-03T09:06:48;99719.17;;;-0.73;85.47
50710;BME280;37033;49.994;21.992;2023-04-03T09:09:30;99723.71;;;-0.75;85.11
50710;BME280;37033;49.994;21.992;2023-04-03T09:12:07;99723.66;;;-0.78;84.82
50710;BME280;37033;49.994;21.992;2023-04-03T09:14:45;99718.29;;;-0.80;84.56
50710;BME280;37033;49.994;21.992;2023-04-03T09:17:24;99721.86;;;-0.78;84.57
50710;BME280;37033;49.994;21.992;2023-04-03T09:20:01;99725.30;;;-0.75;84.25
50710;BME280;37033;49.994;21.992;2023-04-03T09:22:40;99733.29;;;-0.73;83.86
50710;BME280;37033;49.994;21.992;2023-04-03T09:25:15;99729.66;;;-0.73;83.83
50710;BME280;37033;49.994;21.992;2023-04-03T09:27:47;99733.67;;;-0.72;83.66
50710;BME280;37033;49.994;21.992;2023-04-03T09:30:20;99732.16;;;-0.73;83.51
50710;BME280;37033;49.994;21.992;2023-04-03T09:32:53;99737.15;;;-0.73;83.52
50710;BME280;37033;49.994;21.992;2023-04-03T09:35:27;99742.73;;;-0.73;83.31
50710;BME280;37033;49.994;21.992;2023-04-03T09:38:00;99742.95;;;-0.75;82.63
50710;BME280;37033;49.994;21.992;2023-04-03T09:40:37;99749.19;;;-0.77;82.71
50710;BME280;37033;49.994;21.992;2023-04-03T09:43:29;99749.35;;;-0.79;82.73
50710;BME280;37033;49.994;21.992;2023-04-03T09:46:23;99753.80;;;-0.79;82.87
50710;BME280;37033;49.994;21.992;2023-04-03T09:48:59;99760.51;;;-0.78;83.07
50710;BME280;37033;49.994;21.992;2023-04-03T09:51:31;99769.98;;;-0.77;82.65
50710;BME280;37033;49.994;21.992;2023-04-03T09:54:26;99772.88;;;-0.79;82.17
50710;BME280;37033;49.994;21.992;2023-04-03T09:57:00;99781.80;;;-0.81;82.00
50710;BME280;37033;49.994;21.992;2023-04-03T09:59:32;99778.88;;;-0.84;81.86
50710;BME280;37033;49.994;21.992;2023-04-03T10:02:21;99779.27;;;-0.87;82.14
50710;BME280;37033;49.994;21.992;2023-04-03T10:04:53;99788.33;;;-0.89;82.36
50710;BME280;37033;49.994;21.992;2023-04-03T10:07:32;99799.73;;;-0.89;82.77
50710;BME280;37033;49.994;21.992;2023-04-03T10:10:18;99796.21;;;-0.92;81.95
50710;BME280;37033;49.994;21.992;2023-04-03T10:12:49;99796.06;;;-0.95;82.24
50710;BME280;37033;49.994;21.992;2023-04-03T10:15:39;99795.05;;;-0.96;82.67
50710;BME280;37033;49.994;21.992;2023-04-03T10:18:22;99799.00;;;-0.94;82.94
50710;BME280;37033;49.994;21.992;2023-04-03T10:21:02;99800.92;;;-0.96;83.12
50710;BME280;37033;49.994;21.992;2023-04-03T10:23:41;99804.48;;;-0.97;83.25
50710;BME280;37033;49.994;21.992;2023-04-03T10:26:21;99805.13;;;-1.01;83.12
50710;BME280;37033;49.994;21.992;2023-04-03T10:29:00;99809.02;;;-1.02;83.32
50710;BME280;37033;49.994;21.992;2023-04-03T10:31:38;99810.48;;;-1.03;83.58
50710;BME280;37033;49.994;21.992;2023-04-03T10:34:18;99807.58;;;-1.04;83.55
50710;BME280;37033;49.994;21.992;2023-04-03T10:36:56;99814.54;;;-1.06;83.37
50710;BME280;37033;49.994;21.992;2023-04-03T10:39:34;99816.08;;;-1.05;83.30
50710;BME280;37033;49.994;21.992;2023-04-03T10:42:11;99816.05;;;-1.05;83.47
50710;BME280;37033;49.994;21.992;2023-04-03T10:44:54;99815.15;;;-1.03;83.33
50710;BME280;37033;49.994;21.992;2023-04-03T10:47:34;99812.27;;;-1.01;83.49
50710;BME280;37033;49.994;21.992;2023-04-03T10:53:21;99815.44;;;-0.97;83.35
50710;BME280;37033;49.994;21.992;2023-04-03T10:56:01;99816.40;;;-0.96;83.43
50710;BME280;37033;49.994;21.992;2023-04-03T10:58:36;99817.65;;;-0.94;83.51
50710;BME280;37033;49.994;21.992;2023-04-03T11:01:11;99818.42;;;-0.93;83.53
50710;BME280;37033;49.994;21.992;2023-04-03T11:03:46;99814.14;;;-0.91;83.48
50710;BME280;37033;49.994;21.992;2023-04-03T11:06:21;99818.52;;;-0.89;83.55
50710;BME280;37033;49.994;21.992;2023-04-03T11:08:59;99820.89;;;-0.84;83.67
50710;BME280;37033;49.994;21.992;2023-04-03T11:11:35;99820.52;;;-0.77;83.56
50710;BME280;37033;49.994;21.992;2023-04-03T11:14:09;99826.14;;;-0.74;83.52
50710;BME280;37033;49.994;21.992;2023-04-03T11:16:48;99823.64;;;-0.73;83.29
50710;BME280;37033;49.994;21.992;2023-04-03T11:19:24;99819.94;;;-0.70;83.52
50710;BME280;37033;49.994;21.992;2023-04-03T11:22:02;99821.14;;;-0.66;83.26
50710;BME280;37033;49.994;21.992;2023-04-03T11:24:41;99824.91;;;-0.63;83.18
50710;BME280;37033;49.994;21.992;2023-04-03T11:27:17;99825.27;;;-0.61;83.14
50710;BME280;37033;49.994;21.992;2023-04-03T11:29:53;99826.34;;;-0.59;82.93
50710;BME280;37033;49.994;21.992;2023-04-03T11:32:54;99826.71;;;-0.57;82.93
50710;BME280;37033;49.994;21.992;2023-04-03T11:35:29;99821.61;;;-0.56;82.69
50710;BME280;37033;49.994;21.992;2023-04-03T11:38:01;99821.60;;;-0.54;82.42
50710;BME280;37033;49.994;21.992;2023-04-03T11:40:37;99822.08;;;-0.49;82.59
50710;BME280;37033;49.994;21.992;2023-04-03T11:43:23;99828.41;;;-0.47;82.34
50710;BME280;37033;49.994;21.992;2023-04-03T11:45:57;99829.58;;;-0.46;82.50
50710;BME280;37033;49.994;21.992;2023-04-03T11:48:52;99828.89;;;-0.44;82.40
50710;BME280;37033;49.994;21.992;2023-04-03T11:51:51;99831.78;;;-0.45;81.77
50710;BME280;37033;49.994;21.992;2023-04-03T11:54:46;99831.24;;;-0.46;81.65
50710;BME280;37033;49.994;21.992;2023-04-03T11:57:46;99828.95;;;-0.45;81.80
50710;BME280;37033;49.994;21.992;2023-04-03T12:00:52;99833.23;;;-0.42;81.93
50710;BME280;37033;49.994;21.992;2023-04-03T12:06:58;99836.90;;;-0.37;81.60
50710;BME280;37033;49.994;21.992;2023-04-03T12:09:33;99839.07;;;-0.36;81.59
50710;BME280;37033;49.994;21.992;2023-04-03T12:12:29;99841.79;;;-0.35;81.34
50710;BME280;37033;49.994;21.992;2023-04-03T12:15:23;99841.81;;;-0.33;81.56
50710;BME280;37033;49.994;21.992;2023-04-03T12:17:54;99841.52;;;-0.32;81.70
50710;BME280;37033;49.994;21.992;2023-04-03T12:23:34;99848.50;;;-0.34;82.13
50710;BME280;37033;49.994;21.992;2023-04-03T12:26:21;99857.03;;;-0.37;82.27
50710;BME280;37033;49.994;21.992;2023-04-03T12:28:53;99855.01;;;-0.42;82.44
50710;BME280;37033;49.994;21.992;2023-04-03T12:31:36;99857.88;;;-0.46;82.67
50710;BME280;37033;49.994;21.992;2023-04-03T12:34:24;99857.40;;;-0.49;82.82
50710;BME280;37033;49.994;21.992;2023-04-03T12:37:01;99856.94;;;-0.48;83.40
50710;BME280;37033;49.994;21.992;2023-04-03T12:39:49;99857.55;;;-0.46;83.37
50710;BME280;37033;49.994;21.992;2023-04-03T12:42:41;99861.86;;;-0.39;83.63
50710;BME280;37033;49.994;21.992;2023-04-03T12:45:19;99865.95;;;-0.31;83.71
50710;BME280;37033;49.994;21.992;2023-04-03T12:47:52;99869.94;;;-0.19;83.43
50710;BME280;37033;49.994;21.992;2023-04-03T12:50:27;99866.45;;;-0.13;82.99
50710;BME280;37033;49.994;21.992;2023-04-03T12:53:02;99869.39;;;-0.09;82.15
50710;BME280;37033;49.994;21.992;2023-04-03T12:55:34;99869.90;;;-0.05;81.81
50710;BME280;37033;49.994;21.992;2023-04-03T12:58:21;99870.40;;;0.00;81.42
50710;BME280;37033;49.994;21.992;2023-04-03T13:01:03;99871.91;;;0.05;81.22
50710;BME280;37033;49.994;21.992;2023-04-03T13:03:35;99871.08;;;0.09;80.59
50710;BME280;37033;49.994;21.992;2023-04-03T13:06:10;99872.54;;;0.12;80.52
50710;BME280;37033;49.994;21.992;2023-04-03T13:08:52;99870.24;;;0.18;80.98
50710;BME280;37033;49.994;21.992;2023-04-03T13:11:23;99866.96;;;0.25;80.11
50710;BME280;37033;49.994;21.992;2023-04-03T13:14:01;99865.69;;;0.23;79.69
50710;BME280;37033;49.994;21.992;2023-04-03T13:16:34;99863.59;;;0.19;79.39
50710;BME280;37033;49.994;21.992;2023-04-03T13:19:14;99861.22;;;0.18;79.65
50710;BME280;37033;49.994;21.992;2023-04-03T13:21:46;99856.84;;;0.19;79.73
50710;BME280;37033;49.994;21.992;2023-04-03T13:24:17;99856.92;;;0.22;79.82
50710;BME280;37033;49.994;21.992;2023-04-03T13:26:48;99854.58;;;0.29;80.04
50710;BME280;37033;49.994;21.992;2023-04-03T13:29:24;99850.85;;;0.35;78.89
50710;BME280;37033;49.994;21.992;2023-04-03T13:31:56;99853.09;;;0.39;78.25
50710;BME280;37033;49.994;21.992;2023-04-03T13:34:32;99847.95;;;0.46;78.11
50710;BME280;37033;49.994;21.992;2023-04-03T13:37:07;99852.59;;;0.54;77.02
50710;BME280;37033;49.994;21.992;2023-04-03T13:39:39;99853.45;;;0.59;75.37